Time;durP1;ratioP1;P1;durP2;ratioP2;P2;SDS_P1;SDS_P2;PMS_P1;PMS_P2;Temp;Humidity;BMP_temperature;BMP_pressure;BME280_temperature;BME280_humidity;BME280_pressure;Samples;Min_cycle;Max_cycle;Signal;HPM_P1;HPM_P2
2022/10/19 00:00:59;;;;;;;17.85;9.85;;;;;;;20.55;78.18;100054.03;5103390;28;20403;-75
2022/10/19 00:03:26;;;;;;;8.45;7.68;;;;;;;20.58;78.13;100071.16;5099799;28;20434;-76
2022/10/19 00:05:53;;;;;;;11.32;8.32;;;;;;;20.42;77.78;100067.41;5100905;28;20055;-74
2022/10/19 00:08:19;;;;;;;8.73;8.00;;;;;;;20.56;78.01;100084.88;5100240;28;20055;-74
2022/10/19 00:10:46;;;;;;;8.85;8.10;;;;;;;20.46;77.29;100042.78;5105009;28;20047;-72
2022/10/19 00:13:13;;;;;;;8.80;8.15;;;;;;;20.31;77.30;100026.56;5096061;27;20043;-74
2022/10/19 00:15:40;;;;;;;8.85;8.25;;;;;;;20.66;77.84;100043.00;5108144;28;20047;-73
2022/10/19 00:18:08;;;;;;;10.00;9.18;;;;;;;20.18;77.37;99976.75;5103364;28;20056;-72
2022/10/19 00:20:35;;;;;;;8.43;7.80;;;;;;;20.54;77.04;100041.03;5102028;28;20048;-73
2022/10/19 00:23:02;;;;;;;8.50;7.78;;;;;;;20.50;76.47;100028.72;5108816;28;20059;-73
2022/10/19 00:25:29;;;;;;;9.75;9.00;;;;;;;20.30;76.35;99990.84;5103915;28;20044;-73
2022/10/19 00:27:56;;;;;;;8.10;7.60;;;;;;;20.43;76.17;100022.84;5105407;28;20051;-72
2022/10/19 00:30:23;;;;;;;8.00;7.60;;;;;;;20.55;76.39;100015.16;5099698;28;20699;-73
2022/10/19 00:32:50;;;;;;;9.20;8.60;;;;;;;20.47;75.59;100007.56;5108504;28;20048;-74
2022/10/19 00:35:16;;;;;;;7.97;7.55;;;;;;;20.45;75.69;99972.25;5104203;28;20386;-72
2022/10/19 00:37:43;;;;;;;8.77;8.10;;;;;;;20.57;75.28;100001.41;5108486;28;20051;-73
2022/10/19 00:40:10;;;;;;;10.80;8.35;;;;;;;20.47;75.37;99956.50;5104706;28;20081;-73
2022/10/19 00:42:37;;;;;;;7.75;7.22;;;;;;;20.59;74.74;99975.53;5100223;28;20044;-73
2022/10/19 00:45:11;;;;;;;9.52;8.23;;;;;;;20.64;74.21;99968.75;5104567;28;20467;-73
2022/10/19 00:47:39;;;;;;;8.13;7.10;;;;;;;20.68;74.12;99983.88;5107043;28;20047;-73
2022/10/19 00:50:06;;;;;;;7.72;7.20;;;;;;;20.55;73.76;99932.88;5102038;28;20051;-73
2022/10/19 00:52:33;;;;;;;7.80;7.20;;;;;;;20.42;72.40;99936.94;5107186;28;20051;-74
2022/10/19 00:55:01;;;;;;;11.80;8.60;;;;;;;20.63;72.40;99956.59;5106359;28;20051;-73
2022/10/19 00:57:30;;;;;;;7.18;6.68;;;;;;;20.72;72.38;99942.25;5110302;28;20510;-73
2022/10/19 00:59:59;;;;;;;7.35;6.75;;;;;;;20.53;71.00;99931.59;5115064;28;20051;-74
2022/10/19 01:02:26;;;;;;;7.35;6.93;;;;;;;20.66;72.33;99916.16;5114881;28;20108;-72
2022/10/19 01:04:52;;;;;;;7.75;7.30;;;;;;;20.88;72.51;99926.03;5114154;28;20078;-71
2022/10/19 01:07:20;;;;;;;9.32;7.57;;;;;;;20.85;72.22;99914.59;5114960;28;20044;-74
2022/10/19 01:09:46;;;;;;;9.00;7.10;;;;;;;20.74;71.51;99914.31;5110821;28;20048;-74
2022/10/19 01:12:51;;;;;;;8.05;7.55;;;;;;;20.77;70.51;99922.09;5112830;27;20051;-72
2022/10/19 01:15:31;;;;;;;7.93;7.25;;;;;;;20.88;71.42;99937.41;5114589;28;20051;-76
2022/10/19 01:18:08;;;;;;;8.35;7.85;;;;;;;20.69;70.50;99900.41;5110843;28;20056;-74
2022/10/19 01:21:09;;;;;;;8.10;7.40;;;;;;;20.55;70.38;99904.53;5111227;28;20062;-76
2022/10/19 01:23:54;;;;;;;8.07;7.60;;;;;;;20.73;71.88;99921.19;5109156;28;20055;-75
2022/10/19 01:26:44;;;;;;;8.65;7.80;;;;;;;20.75;71.31;99915.97;5106592;28;20039;-75
2022/10/19 01:29:33;;;;;;;6.78;6.22;;;;;;;20.56;70.73;99931.69;5111693;28;20521;-75
2022/10/19 01:32:06;;;;;;;8.25;7.50;;;;;;;20.28;71.57;99936.53;5112929;27;20040;-72
2022/10/19 01:34:41;;;;;;;8.63;8.00;;;;;;;20.07;72.75;99919.72;5108875;27;20047;-72
2022/10/19 01:37:36;;;;;;;23.40;20.85;;;;;;;19.58;75.71;99937.63;5112875;28;20586;-71
2022/10/19 01:40:07;;;;;;;31.17;28.98;;;;;;;18.47;78.39;99877.31;5106946;28;20043;-71
2022/10/19 01:43:07;;;;;;;29.90;27.80;;;;;;;18.66;79.76;99930.50;5108164;28;20051;-73
2022/10/19 01:45:51;;;;;;;29.38;27.58;;;;;;;18.53;80.61;99948.63;5101102;28;20044;-74
2022/10/19 01:48:23;;;;;;;21.98;20.60;;;;;;;18.43;81.00;99946.25;5106453;28;20056;-74
2022/10/19 01:50:59;;;;;;;18.63;17.50;;;;;;;18.58;81.41;99917.28;5108100;28;20051;-71
2022/10/19 01:53:29;;;;;;;17.52;16.42;;;;;;;18.60;82.12;99903.63;5105404;28;20568;-71
2022/10/19 01:55:56;;;;;;;;;;;;;;;18.30;83.06;99914.28;5109882;28;20054;-72
2022/10/19 01:58:30;;;;;;;14.32;13.63;;;;;;;18.67;81.77;99908.72;5108627;28;19930;-72
2022/10/19 02:01:01;;;;;;;14.63;13.60;;;;;;;18.83;81.10;99894.72;5101863;28;20055;-73
2022/10/19 02:03:28;;;;;;;14.63;13.30;;;;;;;18.96;80.50;99892.75;5108571;28;20130;-72
2022/10/19 02:05:55;;;;;;;9.43;8.75;;;;;;;19.11;79.72;99887.22;5104263;28;20506;-75
2022/10/19 02:08:40;;;;;;;13.98;12.90;;;;;;;19.22;78.89;99883.91;5107845;28;20047;-73
2022/10/19 02:11:07;;;;;;;12.32;11.63;;;;;;;19.44;79.00;99862.75;5107342;28;20048;-72
2022/10/19 02:13:36;;;;;;;12.18;11.07;;;;;;;19.46;78.34;99832.91;5110371;28;20055;-73
2022/10/19 02:16:07;;;;;;;11.40;10.48;;;;;;;19.64;77.69;99786.13;5105397;28;20051;-75
2022/10/19 02:18:41;;;;;;;29.27;15.80;;;;;;;19.60;77.56;99827.66;5108205;28;20074;-77
2022/10/19 02:21:09;;;;;;;12.45;6.57;;;;;;;19.61;77.14;99812.28;5103984;28;20067;-75
2022/10/19 02:23:36;;;;;;;8.02;5.03;;;;;;;19.88;77.03;99815.53;5111530;28;20043;-75
2022/10/19 02:26:03;;;;;;;17.48;11.55;;;;;;;19.89;76.46;99822.84;5108490;28;20044;-75
2022/10/19 02:28:30;;;;;;;11.00;10.18;;;;;;;19.91;76.19;99800.66;5103080;28;20051;-75
2022/10/19 02:30:59;;;;;;;10.38;9.68;;;;;;;20.07;76.13;99797.84;5103875;27;20047;-74
2022/10/19 02:33:27;;;;;;;17.95;11.95;;;;;;;20.08;75.62;99780.47;5104840;28;20054;-75
2022/10/19 02:35:55;;;;;;;9.45;8.82;;;;;;;20.11;75.46;99802.44;5103348;28;20052;-75
2022/10/19 02:38:23;;;;;;;9.70;8.90;;;;;;;19.99;76.10;99796.00;5106015;27;20051;-73
2022/10/19 02:41:03;;;;;;;15.50;9.70;;;;;;;20.07;75.43;99824.19;5105636;28;20048;-73
2022/10/19 02:43:33;;;;;;;9.80;8.93;;;;;;;20.19;75.71;99826.13;5104744;28;20051;-72
2022/10/19 02:46:04;;;;;;;10.80;9.60;;;;;;;20.26;75.46;99788.63;5104986;28;20059;-73
2022/10/19 02:48:34;;;;;;;10.60;9.65;;;;;;;20.25;75.73;99806.84;5102392;28;20048;-72
2022/10/19 02:51:01;;;;;;;9.20;8.67;;;;;;;20.30;75.30;99818.72;5104344;28;20059;-72
2022/10/19 02:53:28;;;;;;;9.85;8.93;;;;;;;20.30;75.03;99795.22;5101038;28;20055;-72
2022/10/19 02:55:54;;;;;;;13.80;11.30;;;;;;;20.23;74.01;99795.03;5105103;28;20043;-74
2022/10/19 02:58:21;;;;;;;10.13;9.32;;;;;;;20.37;73.54;99792.56;5103083;28;20075;-72
2022/10/19 03:00:48;;;;;;;9.75;9.07;;;;;;;20.18;73.99;99722.41;5101673;28;20043;-72
2022/10/19 03:03:15;;;;;;;8.75;8.20;;;;;;;20.45;74.01;99751.06;5104748;28;20043;-73
2022/10/19 03:05:42;;;;;;;9.93;9.02;;;;;;;20.56;73.59;99789.84;5108061;28;20047;-73
2022/10/19 03:08:08;;;;;;;9.05;8.35;;;;;;;20.63;74.21;99772.19;5103265;28;20043;-72
2022/10/19 03:10:35;;;;;;;10.48;9.55;;;;;;;20.57;73.71;99737.59;5109303;28;20414;-73
2022/10/19 03:13:02;;;;;;;9.32;8.57;;;;;;;20.71;74.19;99739.97;5108157;28;20047;-75
2022/10/19 03:15:29;;;;;;;9.82;8.85;;;;;;;20.69;73.76;99752.91;5105898;28;20052;-72
2022/10/19 03:17:56;;;;;;;8.70;8.00;;;;;;;20.62;73.71;99764.06;5101591;28;20054;-74
2022/10/19 03:20:23;;;;;;;8.85;8.35;;;;;;;20.79;73.45;99814.75;5103122;28;20047;-72
2022/10/19 03:22:49;;;;;;;8.68;8.00;;;;;;;20.66;73.02;99736.59;5100125;28;20059;-73
2022/10/19 03:25:16;;;;;;;8.98;7.97;;;;;;;20.76;73.34;99697.13;5104380;27;20062;-73
2022/10/19 03:27:43;;;;;;;10.00;8.38;;;;;;;20.89;72.99;99689.31;5101486;28;20055;-73
2022/10/19 03:30:10;;;;;;;8.07;7.57;;;;;;;20.91;72.77;99729.47;5110787;27;20081;-73
2022/10/19 03:32:37;;;;;;;8.38;7.78;;;;;;;20.92;72.84;99713.28;5106186;28;20054;-73
2022/10/19 03:35:04;;;;;;;8.00;7.28;;;;;;;20.85;72.23;99685.56;5103982;28;20044;-75
2022/10/19 03:37:31;;;;;;;8.25;7.60;;;;;;;20.83;72.63;99699.31;5108225;28;20056;-73
2022/10/19 03:39:58;;;;;;;21.73;12.95;;;;;;;20.89;71.49;99740.41;5103301;28;20090;-71
2022/10/19 03:42:25;;;;;;;8.50;7.93;;;;;;;20.96;71.99;99740.56;5104635;28;20051;-73
2022/10/19 03:44:52;;;;;;;8.80;7.78;;;;;;;20.75;71.17;99678.47;5108073;28;20494;-72
2022/10/19 03:47:19;;;;;;;7.65;7.03;;;;;;;20.95;71.35;99727.53;5099391;28;20432;-73
2022/10/19 03:49:45;;;;;;;11.52;8.88;;;;;;;20.85;71.03;99694.06;5103427;28;20044;-71
2022/10/19 03:52:12;;;;;;;10.82;9.50;;;;;;;20.91;70.93;99678.41;5103830;28;20059;-72
2022/10/19 03:54:39;;;;;;;9.40;8.55;;;;;;;20.78;69.79;99672.03;5097864;28;20043;-71
2022/10/19 03:57:06;;;;;;;53.97;17.75;;;;;;;20.92;69.50;99708.44;5105939;28;20043;-71
2022/10/19 03:59:32;;;;;;;12.82;8.30;;;;;;;20.94;70.52;99696.72;5097727;28;20051;-70
2022/10/19 04:01:59;;;;;;;8.43;3.85;;;;;;;20.96;70.03;99712.19;5102349;28;20108;-71
2022/10/19 04:04:26;;;;;;;5.75;2.53;;;;;;;20.95;70.23;99690.66;5105607;28;20504;-68
2022/10/19 04:06:53;;;;;;;5.18;3.15;;;;;;;21.04;70.42;99708.28;5106014;28;20371;-68
2022/10/19 04:09:21;;;;;;;30.08;7.82;;;;;;;21.03;71.11;99683.94;5106570;28;20055;-68
2022/10/19 04:11:49;;;;;;;10.40;4.25;;;;;;;20.95;70.74;99684.16;5101471;28;20417;-68
2022/10/19 04:14:18;;;;;;;5.72;4.43;;;;;;;20.59;70.87;99663.50;5105851;28;20043;-67
2022/10/19 04:16:59;;;;;;;5.10;4.50;;;;;;;20.47;69.77;99641.72;5105048;28;20126;-66
2022/10/19 04:19:26;;;;;;;6.32;5.90;;;;;;;19.74;72.79;99699.81;5105946;28;20067;-65
2022/10/19 04:21:52;;;;;;;5.63;5.22;;;;;;;19.17;75.07;99718.78;5103918;28;20052;-66
2022/10/19 04:24:19;;;;;;;6.07;5.45;;;;;;;19.26;76.13;99704.50;5103566;28;20056;-66
2022/10/19 04:26:49;;;;;;;11.73;8.23;;;;;;;19.12;76.79;99693.56;5100502;28;20048;-66
2022/10/19 04:29:20;;;;;;;7.13;6.38;;;;;;;18.67;78.19;99682.47;5104072;28;20058;-66
2022/10/19 04:31:52;;;;;;;7.22;5.53;;;;;;;18.63;77.90;99628.63;5098089;28;20048;-65
2022/10/19 04:34:19;;;;;;;7.53;5.75;;;;;;;18.80;77.67;99686.09;5105096;28;20406;-65
2022/10/19 04:36:46;;;;;;;6.25;5.80;;;;;;;18.74;78.48;99667.75;5109405;28;20391;-66
2022/10/19 04:39:12;;;;;;;6.18;4.82;;;;;;;18.74;78.30;99657.28;5104462;28;20055;-67
2022/10/19 04:41:39;;;;;;;5.68;5.13;;;;;;;18.93;78.47;99653.78;5096721;28;20047;-65
2022/10/19 04:44:06;;;;;;;4.20;3.90;;;;;;;18.97;77.89;99657.53;5103297;28;20521;-67
2022/10/19 04:46:33;;;;;;;13.63;12.82;;;;;;;18.60;78.86;99687.91;5106772;28;20040;-65
2022/10/19 04:49:03;;;;;;;14.10;10.15;;;;;;;18.12;80.82;99701.69;5103289;28;20051;-65
2022/10/19 04:51:30;;;;;;;8.68;7.93;;;;;;;18.06;81.21;99660.72;5114114;28;20463;-65
2022/10/19 04:53:57;;;;;;;11.93;11.20;;;;;;;18.05;81.85;99701.47;5108060;27;20086;-67
2022/10/19 04:56:26;;;;;;;12.35;11.45;;;;;;;17.80;82.95;99671.50;5106030;28;20048;-67
2022/10/19 04:58:55;;;;;;;18.05;16.90;;;;;;;17.53;83.64;99662.47;5103792;28;20058;-67
2022/10/19 05:01:22;;;;;;;16.67;15.77;;;;;;;17.51;83.73;99676.13;5102431;28;20048;-67
2022/10/19 05:03:58;;;;;;;18.20;17.08;;;;;;;17.74;83.24;99609.59;5108372;28;20059;-65
2022/10/19 05:06:25;;;;;;;21.25;20.15;;;;;;;17.39;84.19;99639.41;5100392;28;20134;-66
2022/10/19 05:08:52;;;;;;;21.25;20.15;;;;;;;17.28;85.60;99655.94;5103110;28;20056;-67
2022/10/19 05:11:19;;;;;;;20.80;19.70;;;;;;;17.34;85.94;99727.94;5100810;28;20067;-67
2022/10/19 05:13:47;;;;;;;23.60;22.30;;;;;;;17.39;86.71;99732.53;5099965;28;20790;-68
2022/10/19 05:16:17;;;;;;;20.73;19.63;;;;;;;17.22;87.16;99725.03;5099515;28;20052;-67
2022/10/19 05:18:55;;;;;;;21.10;20.00;;;;;;;17.14;87.76;99715.50;5099934;28;20063;-69
2022/10/19 05:21:22;;;;;;;21.13;20.02;;;;;;;17.17;87.68;99706.34;5101249;28;20056;-68
2022/10/19 05:23:53;;;;;;;21.50;20.40;;;;;;;17.20;88.33;99778.19;5104303;28;20054;-71
2022/10/19 05:26:22;;;;;;;20.23;19.23;;;;;;;17.16;88.17;99761.13;5110888;28;20052;-73
2022/10/19 05:28:55;;;;;;;21.38;20.27;;;;;;;17.28;88.27;99690.63;5112111;28;20059;-69
2022/10/19 05:31:25;;;;;;;20.70;19.05;;;;;;;17.27;88.34;99758.72;5100398;28;20566;-68
2022/10/19 05:33:54;;;;;;;21.10;19.73;;;;;;;17.33;88.94;99754.47;5099368;28;20055;-70
2022/10/19 05:36:26;;;;;;;21.38;20.27;;;;;;;17.31;88.80;99733.44;5099172;28;20043;-70
2022/10/19 05:38:57;;;;;;;24.27;22.98;;;;;;;17.26;89.24;99759.84;5101565;28;20051;-70
2022/10/19 05:41:25;;;;;;;26.27;24.65;;;;;;;17.19;89.54;99749.13;5102941;28;20104;-66
2022/10/19 05:43:54;;;;;;;28.13;26.42;;;;;;;17.13;89.53;99742.06;5101729;28;20066;-65
2022/10/19 05:46:22;;;;;;;24.83;23.30;;;;;;;17.13;90.10;99738.38;5095412;28;20082;-66
2022/10/19 05:48:49;;;;;;;25.17;23.98;;;;;;;17.06;90.01;99795.38;5099323;28;20051;-65
2022/10/19 05:51:19;;;;;;;24.85;23.55;;;;;;;17.05;89.57;99755.03;5105596;28;20048;-65
2022/10/19 05:53:46;;;;;;;25.40;22.92;;;;;;;17.08;89.65;99776.09;5097566;28;20819;-70
2022/10/19 05:56:16;;;;;;;25.80;23.63;;;;;;;17.11;89.16;99766.97;5103163;28;20058;-64
2022/10/19 05:58:42;;;;;;;;;;;;;;;16.98;90.26;99773.69;5107286;28;20077;-64
2022/10/19 06:01:09;;;;;;;26.92;23.75;;;;;;;17.34;90.23;99760.97;5107825;28;20374;-66
2022/10/19 06:03:37;;;;;;;23.30;21.75;;;;;;;17.46;89.99;99742.09;5102854;28;20055;-64
2022/10/19 06:06:05;;;;;;;24.48;23.00;;;;;;;17.46;89.52;99741.25;5101207;28;20055;-62
2022/10/19 06:08:33;;;;;;;24.45;21.98;;;;;;;17.53;89.20;99741.53;5102994;27;20502;-64
2022/10/19 06:11:05;;;;;;;24.23;21.65;;;;;;;17.57;88.64;99772.69;5098634;28;20407;-63
2022/10/19 06:13:32;;;;;;;21.75;20.05;;;;;;;17.59;89.57;99784.50;5099678;28;20043;-65
2022/10/19 06:15:59;;;;;;;25.45;18.52;;;;;;;17.69;89.27;99801.81;5101085;28;21164;-66
2022/10/19 06:18:26;;;;;;;35.75;21.67;;;;;;;17.62;89.18;99801.56;5098623;28;20759;-66
2022/10/19 06:20:53;;;;;;;30.95;22.92;;;;;;;17.54;89.29;99816.59;5102224;28;20052;-66
2022/10/19 06:23:20;;;;;;;24.48;22.02;;;;;;;17.34;89.57;99814.59;5102610;27;20395;-67
2022/10/19 06:25:47;;;;;;;20.83;17.60;;;;;;;17.29;89.53;99833.38;5097454;28;20494;-65
2022/10/19 06:28:14;;;;;;;24.90;20.98;;;;;;;17.16;89.92;99831.66;5098175;28;20048;-66
2022/10/19 06:30:41;;;;;;;25.55;23.42;;;;;;;17.19;90.17;99811.19;5102071;28;20607;-66
2022/10/19 06:33:07;;;;;;;22.95;21.13;;;;;;;16.76;89.28;99834.88;5100508;28;20066;-66
2022/10/19 06:35:34;;;;;;;21.80;20.15;;;;;;;16.50;90.04;99831.31;5106599;28;20062;-66
2022/10/19 06:38:01;;;;;;;24.73;20.40;;;;;;;16.47;90.39;99854.53;5107944;28;20056;-66
2022/10/19 06:40:28;;;;;;;21.05;19.50;;;;;;;16.34;90.44;99859.22;5102925;28;20051;-66
2022/10/19 06:42:55;;;;;;;24.10;21.77;;;;;;;16.16;90.17;99841.53;5099363;28;20056;-66
2022/10/19 06:45:22;;;;;;;21.88;20.52;;;;;;;16.10;90.92;99854.13;5100591;28;20055;-66
2022/10/19 06:47:48;;;;;;;20.95;19.55;;;;;;;16.08;91.11;99859.28;5107733;28;20043;-67
2022/10/19 06:50:15;;;;;;;26.77;25.27;;;;;;;16.18;91.46;99856.13;5106964;28;20066;-66
2022/10/19 06:52:42;;;;;;;25.60;24.23;;;;;;;16.29;91.35;99857.41;5103609;28;20062;-67
2022/10/19 06:55:09;;;;;;;19.33;18.33;;;;;;;16.30;91.74;99859.06;5088531;28;20059;-67
2022/10/19 06:57:36;;;;;;;19.67;18.27;;;;;;;16.33;91.53;99849.09;5095957;28;20039;-62
2022/10/19 07:00:06;;;;;;;19.10;18.20;;;;;;;16.33;91.38;99858.38;5102567;28;20056;-66
2022/10/19 07:02:33;;;;;;;20.08;18.58;;;;;;;16.28;92.04;99861.41;5107004;28;20055;-67
2022/10/19 07:05:00;;;;;;;26.75;25.45;;;;;;;16.28;92.04;99872.66;5104590;28;20147;-64
2022/10/19 07:07:32;;;;;;;28.40;26.17;;;;;;;16.33;91.70;99871.66;5107505;28;20506;-67
2022/10/19 07:10:00;;;;;;;20.38;19.40;;;;;;;16.21;91.58;99849.81;5108470;27;20068;-67
2022/10/19 07:12:27;;;;;;;19.55;18.65;;;;;;;16.25;91.96;99850.78;5104944;28;20494;-67
2022/10/19 07:14:55;;;;;;;19.52;18.30;;;;;;;16.16;91.42;99847.16;5105973;28;20051;-67
2022/10/19 07:17:21;;;;;;;23.38;22.13;;;;;;;16.15;91.65;99862.41;5098646;28;20074;-67
2022/10/19 07:19:48;;;;;;;25.02;23.55;;;;;;;16.01;91.11;99861.78;5105809;28;20067;-67
2022/10/19 07:22:15;;;;;;;20.90;19.02;;;;;;;15.92;90.40;99877.88;5098943;28;20052;-67
2022/10/19 07:24:51;;;;;;;23.33;19.30;;;;;;;15.78;90.23;99907.00;5095787;28;20093;-66
2022/10/19 07:27:17;;;;;;;26.30;24.02;;;;;;;15.53;90.09;99900.19;5108931;28;20055;-66
2022/10/19 07:29:44;;;;;;;21.30;19.65;;;;;;;15.34;90.18;99886.41;5102130;28;20051;-67
2022/10/19 07:32:11;;;;;;;21.58;19.75;;;;;;;15.15;90.74;99869.84;5101229;28;20532;-68
2022/10/19 07:34:38;;;;;;;22.00;20.45;;;;;;;14.99;91.28;99837.72;5111301;28;20055;-67
2022/10/19 07:37:04;;;;;;;22.17;20.20;;;;;;;14.94;91.76;99866.00;5105394;28;20115;-68
2022/10/19 07:39:31;;;;;;;21.80;19.98;;;;;;;14.85;91.65;99905.31;5098857;28;20452;-68
2022/10/19 07:41:58;;;;;;;19.73;18.73;;;;;;;14.96;91.79;99945.22;5105268;28;20043;-68
2022/10/19 07:44:25;;;;;;;21.98;20.02;;;;;;;15.03;91.82;99950.38;5105068;28;21616;-68
2022/10/19 07:46:52;;;;;;;20.63;19.33;;;;;;;15.02;91.51;99943.09;5098689;28;20066;-68
2022/10/19 07:49:19;;;;;;;20.48;18.95;;;;;;;15.06;91.49;99955.34;5100457;28;20062;-67
2022/10/19 07:51:46;;;;;;;20.45;18.63;;;;;;;15.11;91.56;99958.00;5098035;28;20052;-67
2022/10/19 07:54:13;;;;;;;24.20;21.67;;;;;;;15.20;91.40;99953.25;5099055;28;20048;-67
2022/10/19 07:56:40;;;;;;;31.80;21.30;;;;;;;15.20;91.52;99921.47;5095370;28;20128;-67
2022/10/19 07:59:08;;;;;;;27.35;19.70;;;;;;;15.26;91.45;99932.25;5095024;28;20051;-67
2022/10/19 08:01:40;;;;;;;22.67;20.98;;;;;;;15.27;91.07;99928.28;5098478;28;20039;-68
2022/10/19 08:04:07;;;;;;;24.30;19.48;;;;;;;15.27;90.68;99950.78;5097720;28;20494;-66
2022/10/19 08:06:54;;;;;;;19.92;18.13;;;;;;;15.31;90.77;99925.63;5093981;28;20108;-66
2022/10/19 08:09:21;;;;;;;20.42;18.50;;;;;;;15.36;90.81;99920.69;5090659;28;20055;-66
2022/10/19 08:12:07;;;;;;;18.75;16.80;;;;;;;15.37;90.51;99908.28;5091924;28;20556;-66
2022/10/19 08:14:40;;;;;;;16.55;15.13;;;;;;;15.35;90.04;99904.97;5093778;28;20134;-67
2022/10/19 08:17:10;;;;;;;14.32;13.27;;;;;;;15.39;89.87;99911.59;5095118;28;20055;-66
2022/10/19 08:19:41;;;;;;;;;;;;;;;15.28;90.58;99913.06;5096150;28;20060;-66
2022/10/19 08:22:09;;;;;;;14.25;10.25;;;;;;;15.43;90.07;99939.06;5095986;28;19928;-67
2022/10/19 08:24:36;;;;;;;10.10;9.25;;;;;;;15.30;89.72;99943.69;5092256;28;20047;-67
2022/10/19 08:27:03;;;;;;;14.07;10.95;;;;;;;15.50;89.68;99940.25;5090696;28;20051;-66
2022/10/19 08:29:30;;;;;;;12.43;10.70;;;;;;;15.58;89.72;99955.47;5093409;28;20087;-66
2022/10/19 08:31:57;;;;;;;9.70;8.63;;;;;;;15.55;89.82;99968.22;5095209;28;20469;-65
2022/10/19 08:34:24;;;;;;;16.20;12.68;;;;;;;15.52;89.43;99968.03;5095546;28;20063;-66
2022/10/19 08:36:51;;;;;;;12.25;8.98;;;;;;;15.53;89.53;99978.16;5099011;28;20054;-67
2022/10/19 08:39:18;;;;;;;9.85;9.10;;;;;;;15.55;89.64;99947.69;5093513;28;20093;-66
2022/10/19 08:41:47;;;;;;;10.38;9.35;;;;;;;15.63;90.04;99919.56;5097454;28;20533;-65
2022/10/19 08:44:30;;;;;;;12.50;10.35;;;;;;;15.71;89.39;99886.97;5101644;28;20052;-67
2022/10/19 08:47:35;;;;;;;9.48;8.73;;;;;;;15.78;89.38;99907.00;5097755;28;20056;-65
2022/10/19 08:50:13;;;;;;;8.73;8.13;;;;;;;15.83;89.24;99900.41;5101084;28;20060;-66
2022/10/19 08:52:42;;;;;;;9.65;8.77;;;;;;;15.86;88.47;99894.09;5109406;28;20431;-67
2022/10/19 08:55:26;;;;;;;9.35;8.38;;;;;;;15.98;88.49;99933.69;5103348;28;20058;-66
2022/10/19 08:58:20;;;;;;;11.27;10.23;;;;;;;16.06;88.66;99938.47;5100739;28;20043;-66
2022/10/19 09:00:59;;;;;;;11.20;8.98;;;;;;;16.15;88.48;99977.91;5097867;28;20506;-66
2022/10/19 09:03:46;;;;;;;7.53;7.03;;;;;;;16.11;88.04;100019.19;5099584;28;20371;-65
2022/10/19 09:06:28;;;;;;;8.93;8.32;;;;;;;16.12;87.70;100015.19;5105165;28;20433;-66
2022/10/19 09:08:56;;;;;;;13.13;8.77;;;;;;;16.16;87.74;100002.09;5100848;28;20051;-66
2022/10/19 09:11:33;;;;;;;12.60;10.38;;;;;;;16.15;87.81;99977.91;5098694;28;20047;-65
2022/10/19 09:14:10;;;;;;;12.50;10.63;;;;;;;16.19;87.45;100014.69;5106365;28;20044;-65
2022/10/19 09:16:36;;;;;;;8.10;7.50;;;;;;;16.21;87.04;100080.81;5093661;28;20062;-65
2022/10/19 09:19:21;;;;;;;10.90;8.15;;;;;;;16.23;86.38;100109.47;5102196;28;20074;-65
2022/10/19 09:21:57;;;;;;;9.20;8.35;;;;;;;16.28;86.83;100085.97;5102768;28;20581;-65
2022/10/19 09:24:35;;;;;;;7.10;6.50;;;;;;;16.28;86.73;100064.25;5106387;28;20486;-65
2022/10/19 09:27:04;;;;;;;8.55;6.63;;;;;;;16.33;86.38;100061.25;5103541;28;20524;-65
2022/10/19 09:29:36;;;;;;;6.97;6.38;;;;;;;16.33;86.54;100043.53;5100929;28;20120;-66
2022/10/19 09:32:11;;;;;;;7.38;5.85;;;;;;;16.35;86.59;100064.59;5102969;28;20429;-65
2022/10/19 09:34:44;;;;;;;7.28;6.28;;;;;;;16.35;86.13;100036.41;5100740;28;20056;-66
2022/10/19 09:37:11;;;;;;;5.60;5.13;;;;;;;16.39;86.13;100016.03;5094382;28;20048;-66
2022/10/19 09:39:51;;;;;;;5.95;4.75;;;;;;;16.42;86.41;100035.91;5106809;28;20067;-65
2022/10/19 09:42:27;;;;;;;5.82;5.20;;;;;;;16.46;87.03;100076.34;5107005;28;20052;-66
2022/10/19 09:44:55;;;;;;;7.68;5.47;;;;;;;16.39;86.80;100103.38;5104363;28;20052;-67
2022/10/19 09:47:37;;;;;;;6.43;4.38;;;;;;;16.40;85.85;100133.22;5107794;28;20051;-66
2022/10/19 09:50:21;;;;;;;5.43;4.40;;;;;;;16.38;85.32;100107.38;5100757;28;20058;-66
2022/10/19 09:52:51;;;;;;;5.55;4.68;;;;;;;16.53;85.51;100115.31;5102609;28;20047;-66
2022/10/19 09:55:36;;;;;;;8.30;4.57;;;;;;;16.68;86.35;100089.44;5106058;28;20059;-66
2022/10/19 09:58:12;;;;;;;7.45;5.55;;;;;;;16.89;85.67;100077.50;5097890;28;20071;-66
2022/10/19 10:00:53;;;;;;;14.45;4.63;;;;;;;16.86;85.50;100041.53;5105924;28;20048;-66
2022/10/19 10:03:39;;;;;;;4.47;4.13;;;;;;;17.00;85.56;100073.19;5104786;28;20051;-67
2022/10/19 10:06:09;;;;;;;9.23;5.93;;;;;;;17.07;85.27;100067.84;5106785;28;20066;-65
2022/10/19 10:08:43;;;;;;;5.25;4.35;;;;;;;17.06;84.74;100038.00;5104327;28;20043;-66
2022/10/19 10:11:13;;;;;;;25.88;5.53;;;;;;;17.12;84.70;100064.84;5102874;28;20039;-66
2022/10/19 10:13:47;;;;;;;5.13;4.72;;;;;;;17.17;84.31;100053.38;5101910;28;20336;-66
2022/10/19 10:16:16;;;;;;;7.90;4.30;;;;;;;17.26;84.33;100085.22;5101309;28;20413;-66
2022/10/19 10:18:58;;;;;;;4.95;4.45;;;;;;;17.41;84.16;100055.59;5097246;28;20102;-66
2022/10/19 10:21:34;;;;;;;12.25;5.13;;;;;;;17.56;84.05;100034.44;5099483;28;20050;-67
2022/10/19 10:24:11;;;;;;;4.20;3.80;;;;;;;17.58;83.61;100066.00;5106269;28;20051;-67
2022/10/19 10:26:44;;;;;;;7.35;4.22;;;;;;;17.59;84.13;100080.94;5092341;28;20052;-66
2022/10/19 10:29:35;;;;;;;4.68;4.38;;;;;;;17.44;83.32;100059.75;5103091;28;20063;-66
2022/10/19 10:32:17;;;;;;;5.28;4.80;;;;;;;17.42;83.88;100073.38;5098908;28;20059;-66
2022/10/19 10:34:48;;;;;;;7.80;4.35;;;;;;;17.38;82.95;100089.34;5097750;28;20055;-67
2022/10/19 10:37:38;;;;;;;4.95;4.38;;;;;;;17.52;83.63;100093.56;5103169;28;20047;-66
2022/10/19 10:40:17;;;;;;;5.80;4.65;;;;;;;17.66;84.21;100067.94;5098337;28;20078;-67
2022/10/19 10:42:52;;;;;;;4.68;4.18;;;;;;;17.79;83.58;100063.25;5101341;28;20259;-66
2022/10/19 10:45:22;;;;;;;6.20;5.18;;;;;;;17.65;83.31;100055.00;5104450;28;20052;-67
2022/10/19 10:47:49;;;;;;;;;;;;;;;17.27;83.32;100077.59;5107994;28;20410;-67
2022/10/19 10:50:22;;;;;;;4.25;3.88;;;;;;;17.33;83.46;100092.31;5095848;28;19920;-67
2022/10/19 10:53:22;;;;;;;5.07;4.38;;;;;;;17.22;83.90;100083.41;5100876;28;20060;-66
2022/10/19 10:55:55;;;;;;;4.28;3.97;;;;;;;17.12;83.77;100078.94;5101685;28;20059;-67
2022/10/19 10:58:42;;;;;;;5.43;4.35;;;;;;;17.09;84.54;100054.22;5100961;28;20521;-66
2022/10/19 11:01:25;;;;;;;8.30;4.82;;;;;;;17.15;83.92;100081.09;5101440;28;20047;-67
2022/10/19 11:04:10;;;;;;;8.90;5.88;;;;;;;17.68;85.25;100061.97;5100146;28;20055;-67
2022/10/19 11:06:43;;;;;;;5.60;5.00;;;;;;;18.41;84.71;100075.78;5096165;28;20540;-66
2022/10/19 11:09:24;;;;;;;5.13;4.72;;;;;;;18.62;83.33;100065.28;5102564;28;20194;-66
2022/10/19 11:11:54;;;;;;;6.53;5.40;;;;;;;19.55;84.58;100074.28;5105532;28;20067;-67
2022/10/19 11:14:59;;;;;;;15.75;5.72;;;;;;;21.74;86.18;100075.94;5110077;28;20051;-67
2022/10/19 11:17:31;;;;;;;3.55;3.30;;;;;;;22.99;79.88;100083.72;5106111;28;20047;-66
2022/10/19 11:19:59;;;;;;;4.35;4.00;;;;;;;22.80;80.06;100076.78;5105072;28;20054;-66
2022/10/19 11:22:53;;;;;;;3.45;3.15;;;;;;;23.26;76.50;100074.06;5097641;28;20082;-66
2022/10/19 11:25:20;;;;;;;4.03;3.70;;;;;;;22.97;78.78;100081.22;5106345;28;20039;-65
2022/10/19 11:28:14;;;;;;;7.07;4.35;;;;;;;22.65;76.72;100072.00;5105295;28;20047;-66
2022/10/19 11:31:19;;;;;;;4.90;4.53;;;;;;;21.79;77.92;100077.69;5104418;28;20526;-67
2022/10/19 11:34:40;;;;;;;4.78;4.47;;;;;;;21.88;76.55;100058.41;5086939;28;20422;-66
2022/10/19 11:37:19;;;;;;;6.78;4.25;;;;;;;21.43;76.01;100071.91;5093267;28;20418;-67
2022/10/19 11:39:49;;;;;;;8.95;5.22;;;;;;;20.83;77.31;100071.88;5095631;28;20048;-67
2022/10/19 11:42:53;;;;;;;4.78;4.05;;;;;;;20.44;77.42;100064.19;5097536;27;20051;-66
2022/10/19 11:45:50;;;;;;;4.47;4.13;;;;;;;19.89;76.08;100061.69;5097951;28;20390;-67